hwlogo.jpg (8581 bytes)
Home Your Weather Products Services Weather On Your Site Contact
HW Version Logo
Weather Info
Your Weather (Options)
Canadian Weather
International Weather
Enter your " Place, State", US Zip Code or ICAO:  
Forecast Information Radar Information
Wabush Lake, Newfoundland, Canada  Lat: 52.92N, Lon: 66.87W
ICAO Used: CYWK
Current Conditions
Updated: 11:00 AM AST TUE FEB 20 2018
Sun & Moon Information
Partly Cloudy
Partly Cloudy
Temp: -27°C
Humidity: 51%
Wind Speed: VRB2 MPH
Barometer: 1030 mb
Dewpoint: -34°C
Heat Index: -27°C
Wind Chill: -30°C
Civil Twilight: 7:00 AM AST Moon Phase:
Waxing Crescent Moon
Sunrise: 7:35 AM AST
Sunset: 5:46 PM AST
Civil Twilight: 6:22 PM AST
Forecast for Wabush Lake, NF:
(Forecast based on TAF for )
1000 AM AST TUE FEB 20 2018
  
MORNING AFTERNOON EVENING OVERNIGHT
Partly
Cloudy
Partly
Cloudy
Partly
Cloudy
Partly
Cloudy
ZoneCast:
Dated: 1000 AM AST TUE FEB 20 2018
Morning...Partly cloudy winds variable in direction at 3 mph.

Afternoon...Partly cloudy winds variable in direction at 3 mph.

Evening...Partly cloudy winds variable in direction at 3 mph.

Overnight...Partly cloudy winds variable in direction at 3 mph.

Original Encoded TAF:
Dated: 1000 AM AST TUE FEB 20 2018
2018/02/20 14:00
TAF CYWK 201338Z 2014/2102 VRB03KT P6SM FEW200 
      RMK NXT FCST BY 202000Z